sensor_id;sensor_type;location;lat;lon;timestamp;pressure;altitude;pressure_sealevel;temperature;humidity
47104;BME280;32853;52.164;5.400;2023-07-20T00:01:43;101384.03;;;20.18;100.00
47104;BME280;32853;52.164;5.400;2023-07-20T00:04:09;101387.69;;;20.28;100.00
47104;BME280;32853;52.164;5.400;2023-07-20T00:06:35;101386.75;;;20.29;100.00
47104;BME280;32853;52.164;5.400;2023-07-20T00:09:00;101390.16;;;20.31;100.00
47104;BME280;32853;52.164;5.400;2023-07-20T00:11:26;101386.75;;;20.29;100.00
47104;BME280;32853;52.164;5.400;2023-07-20T00:13:51;101385.94;;;20.03;100.00
47104;BME280;32853;52.164;5.400;2023-07-20T00:16:17;101386.59;;;20.07;100.00
47104;BME280;32853;52.164;5.400;2023-07-20T00:18:42;101387.00;;;20.14;100.00
47104;BME280;32853;52.164;5.400;2023-07-20T00:21:07;101385.94;;;20.03;100.00
47104;BME280;32853;52.164;5.400;2023-07-20T00:23:33;101384.16;;;19.91;100.00
47104;BME280;32853;52.164;5.400;2023-07-20T00:25:58;101379.38;;;19.96;100.00
47104;BME280;32853;52.164;5.400;2023-07-20T00:28:23;101384.25;;;20.02;100.00
47104;BME280;32853;52.164;5.400;2023-07-20T00:30:48;101389.13;;;20.09;100.00
47104;BME280;32853;52.164;5.400;2023-07-20T00:33:16;101389.06;;;19.97;100.00
47104;BME280;32853;52.164;5.400;2023-07-20T00:35:42;101382.78;;;19.98;100.00
47104;BME280;32853;52.164;5.400;2023-07-20T00:38:07;101382.25;;;19.93;100.00
47104;BME280;32853;52.164;5.400;2023-07-20T00:40:38;101381.19;;;19.96;100.00
47104;BME280;32853;52.164;5.400;2023-07-20T00:43:04;101380.31;;;20.08;100.00
47104;BME280;32853;52.164;5.400;2023-07-20T00:45:29;101380.31;;;20.08;100.00
47104;BME280;32853;52.164;5.400;2023-07-20T00:48:13;101378.31;;;19.99;100.00
47104;BME280;32853;52.164;5.400;2023-07-20T00:50:39;101380.00;;;20.00;100.00
47104;BME280;32853;52.164;5.400;2023-07-20T00:53:04;101380.25;;;19.97;100.00
47104;BME280;32853;52.164;5.400;2023-07-20T00:55:40;101387.53;;;19.93;100.00
47104;BME280;32853;52.164;5.400;2023-07-20T00:58:11;101380.34;;;19.95;100.00
47104;BME280;32853;52.164;5.400;2023-07-20T01:00:39;101384.88;;;19.93;100.00
47104;BME280;32853;52.164;5.400;2023-07-20T01:03:05;101386.69;;;19.93;100.00
47104;BME280;32853;52.164;5.400;2023-07-20T01:05:33;101391.81;;;19.96;100.00
47104;BME280;32853;52.164;5.400;2023-07-20T01:08:03;101393.91;;;20.03;100.00
47104;BME280;32853;52.164;5.400;2023-07-20T01:10:40;101395.31;;;19.96;100.00
47104;BME280;32853;52.164;5.400;2023-07-20T01:13:08;101395.41;;;19.95;100.00
47104;BME280;32853;52.164;5.400;2023-07-20T01:15:34;101393.06;;;19.90;100.00
47104;BME280;32853;52.164;5.400;2023-07-20T01:18:00;101388.63;;;19.91;100.00
47104;BME280;32853;52.164;5.400;2023-07-20T01:20:30;101387.78;;;19.90;100.00
47104;BME280;32853;52.164;5.400;2023-07-20T01:33:24;101384.16;;;19.79;100.00
47104;BME280;32853;52.164;5.400;2023-07-20T01:36:00;101390.00;;;19.71;100.00
47104;BME280;32853;52.164;5.400;2023-07-20T01:38:31;101395.75;;;19.65;100.00
47104;BME280;32853;52.164;5.400;2023-07-20T01:41:01;101381.19;;;19.58;100.00
47104;BME280;32853;52.164;5.400;2023-07-20T01:43:29;101387.06;;;19.63;100.00
47104;BME280;32853;52.164;5.400;2023-07-20T01:45:54;101385.44;;;19.60;100.00
47104;BME280;32853;52.164;5.400;2023-07-20T01:48:20;101395.41;;;19.57;100.00
47104;BME280;32853;52.164;5.400;2023-07-20T01:50:45;101387.66;;;19.54;100.00
47104;BME280;32853;52.164;5.400;2023-07-20T01:53:10;101390.22;;;19.55;100.00
47104;BME280;32853;52.164;5.400;2023-07-20T01:55:42;101394.66;;;19.55;100.00
47104;BME280;32853;52.164;5.400;2023-07-20T01:58:15;101394.66;;;19.55;100.00
47104;BME280;32853;52.164;5.400;2023-07-20T02:00:40;101397.22;;;19.56;100.00
47104;BME280;32853;52.164;5.400;2023-07-20T02:03:07;101398.38;;;19.52;100.00
47104;BME280;32853;52.164;5.400;2023-07-20T02:05:33;101403.00;;;19.49;100.00
47104;BME280;32853;52.164;5.400;2023-07-20T02:08:01;101397.19;;;19.43;100.00
47104;BME280;32853;52.164;5.400;2023-07-20T02:10:26;101400.91;;;19.41;100.00
47104;BME280;32853;52.164;5.400;2023-07-20T02:12:51;101398.53;;;19.24;100.00
47104;BME280;32853;52.164;5.400;2023-07-20T02:15:17;101402.75;;;19.13;100.00
47104;BME280;32853;52.164;5.400;2023-07-20T02:17:43;101400.84;;;19.15;100.00
47104;BME280;32853;52.164;5.400;2023-07-20T02:20:09;101397.78;;;19.22;100.00
47104;BME280;32853;52.164;5.400;2023-07-20T02:22:37;101404.56;;;19.26;100.00
47104;BME280;32853;52.164;5.400;2023-07-20T02:25:06;101399.81;;;19.18;100.00
47104;BME280;32853;52.164;5.400;2023-07-20T02:27:32;101402.09;;;19.10;100.00
47104;BME280;32853;52.164;5.400;2023-07-20T02:30:03;101400.09;;;19.13;100.00
47104;BME280;32853;52.164;5.400;2023-07-20T02:32:33;101393.94;;;19.13;100.00
47104;BME280;32853;52.164;5.400;2023-07-20T02:34:59;101399.34;;;19.11;100.00
47104;BME280;32853;52.164;5.400;2023-07-20T02:37:24;101402.00;;;19.11;100.00
47104;BME280;32853;52.164;5.400;2023-07-20T02:39:53;101399.34;;;19.11;100.00
47104;BME280;32853;52.164;5.400;2023-07-20T02:42:19;101399.34;;;19.11;100.00
47104;BME280;32853;52.164;5.400;2023-07-20T02:44:50;101387.06;;;19.10;100.00
47104;BME280;32853;52.164;5.400;2023-07-20T02:47:28;101388.00;;;19.09;100.00
47104;BME280;32853;52.164;5.400;2023-07-20T02:49:54;101391.72;;;19.07;100.00
47104;BME280;32853;52.164;5.400;2023-07-20T02:52:19;101394.56;;;19.04;100.00
47104;BME280;32853;52.164;5.400;2023-07-20T02:54:50;101399.75;;;19.05;100.00
47104;BME280;32853;52.164;5.400;2023-07-20T02:57:16;101401.75;;;19.02;100.00
47104;BME280;32853;52.164;5.400;2023-07-20T02:59:41;101403.66;;;19.00;100.00
47104;BME280;32853;52.164;5.400;2023-07-20T03:02:06;101410.66;;;19.01;100.00
47104;BME280;32853;52.164;5.400;2023-07-20T03:04:35;101413.53;;;18.98;100.00
47104;BME280;32853;52.164;5.400;2023-07-20T03:07:02;101416.19;;;18.98;100.00
47104;BME280;32853;52.164;5.400;2023-07-20T03:11:57;101424.97;;;18.98;100.00
47104;BME280;32853;52.164;5.400;2023-07-20T03:14:25;101431.81;;;18.88;100.00
47104;BME280;32853;52.164;5.400;2023-07-20T03:16:51;101435.22;;;18.90;100.00
47104;BME280;32853;52.164;5.400;2023-07-20T03:19:22;101439.47;;;18.93;100.00
47104;BME280;32853;52.164;5.400;2023-07-20T03:21:49;101448.84;;;18.98;100.00
47104;BME280;32853;52.164;5.400;2023-07-20T03:24:23;101438.53;;;18.94;100.00
47104;BME280;32853;52.164;5.400;2023-07-20T03:26:54;101443.91;;;18.92;100.00
47104;BME280;32853;52.164;5.400;2023-07-20T03:29:34;101445.81;;;18.90;100.00
47104;BME280;32853;52.164;5.400;2023-07-20T03:32:00;101442.53;;;18.86;100.00
47104;BME280;32853;52.164;5.400;2023-07-20T03:34:37;101439.53;;;18.78;100.00
47104;BME280;32853;52.164;5.400;2023-07-20T03:37:03;101436.03;;;18.78;100.00
47104;BME280;32853;52.164;5.400;2023-07-20T03:39:29;101428.28;;;18.75;100.00
47104;BME280;32853;52.164;5.400;2023-07-20T03:41:57;101436.81;;;18.66;100.00
47104;BME280;32853;52.164;5.400;2023-07-20T03:44:23;101447.31;;;18.67;100.00
47104;BME280;32853;52.164;5.400;2023-07-20T03:49:19;101439.91;;;18.72;100.00
47104;BME280;32853;52.164;5.400;2023-07-20T03:51:44;101445.03;;;18.75;100.00
47104;BME280;32853;52.164;5.400;2023-07-20T03:54:09;101439.84;;;18.74;100.00
47104;BME280;32853;52.164;5.400;2023-07-20T03:56:34;101435.66;;;18.70;100.00
47104;BME280;32853;52.164;5.400;2023-07-20T03:59:00;101438.69;;;18.64;100.00
47104;BME280;32853;52.164;5.400;2023-07-20T04:01:25;101443.91;;;18.65;100.00
47104;BME280;32853;52.164;5.400;2023-07-20T04:03:52;101440.66;;;18.60;100.00
47104;BME280;32853;52.164;5.400;2023-07-20T04:06:17;101454.31;;;18.54;100.00
47104;BME280;32853;52.164;5.400;2023-07-20T04:08:42;101448.16;;;18.53;100.00
47104;BME280;32853;52.164;5.400;2023-07-20T04:11:08;101455.44;;;18.50;100.00
47104;BME280;32853;52.164;5.400;2023-07-20T04:13:33;101456.38;;;18.49;100.00
47104;BME280;32853;52.164;5.400;2023-07-20T04:15:59;101455.44;;;18.50;100.00
47104;BME280;32853;52.164;5.400;2023-07-20T04:18:24;101453.28;;;18.42;100.00
47104;BME280;32853;52.164;5.400;2023-07-20T04:20:56;101455.38;;;18.37;100.00
47104;BME280;32853;52.164;5.400;2023-07-20T04:23:21;101461.22;;;18.28;100.00
47104;BME280;32853;52.164;5.400;2023-07-20T04:25:46;101458.69;;;18.26;100.00
47104;BME280;32853;52.164;5.400;2023-07-20T04:28:27;101467.19;;;18.32;100.00
47104;BME280;32853;52.164;5.400;2023-07-20T04:30:54;101464.66;;;18.30;100.00
47104;BME280;32853;52.164;5.400;2023-07-20T04:33:19;101466.53;;;18.28;100.00
47104;BME280;32853;52.164;5.400;2023-07-20T04:35:52;101463.81;;;18.29;100.00
47104;BME280;32853;52.164;5.400;2023-07-20T04:38:26;101457.56;;;18.31;100.00
47104;BME280;32853;52.164;5.400;2023-07-20T04:40:56;101472.28;;;18.35;100.00
47104;BME280;32853;52.164;5.400;2023-07-20T04:43:34;101470.41;;;18.37;100.00
47104;BME280;32853;52.164;5.400;2023-07-20T04:45:59;101481.41;;;18.31;100.00
47104;BME280;32853;52.164;5.400;2023-07-20T04:51:18;101474.75;;;18.23;100.00
47104;BME280;32853;52.164;5.400;2023-07-20T04:53:46;101474.66;;;18.11;100.00
47104;BME280;32853;52.164;5.400;2023-07-20T04:56:11;101483.47;;;18.11;100.00
47104;BME280;32853;52.164;5.400;2023-07-20T04:58:36;101483.56;;;18.10;100.00
47104;BME280;32853;52.164;5.400;2023-07-20T05:01:01;101473.22;;;18.05;100.00
47104;BME280;32853;52.164;5.400;2023-07-20T05:03:27;101477.69;;;18.05;100.00
47104;BME280;32853;52.164;5.400;2023-07-20T05:05:53;101485.81;;;18.02;100.00
47104;BME280;32853;52.164;5.400;2023-07-20T05:08:18;101474.88;;;18.08;100.00
47104;BME280;32853;52.164;5.400;2023-07-20T05:10:45;101477.50;;;18.08;100.00
47104;BME280;32853;52.164;5.400;2023-07-20T05:13:12;101476.16;;;18.00;100.00
47104;BME280;32853;52.164;5.400;2023-07-20T05:15:38;101477.22;;;18.12;100.00
47104;BME280;32853;52.164;5.400;2023-07-20T05:18:03;101481.19;;;18.19;100.00
47104;BME280;32853;52.164;5.400;2023-07-20T05:20:28;101484.59;;;18.21;100.00
47104;BME280;32853;52.164;5.400;2023-07-20T05:22:54;101477.13;;;18.28;100.00
47104;BME280;32853;52.164;5.400;2023-07-20T05:25:22;101486.84;;;18.27;100.00
47104;BME280;32853;52.164;5.400;2023-07-20T05:27:47;101485.00;;;18.29;100.00
47104;BME280;32853;52.164;5.400;2023-07-20T05:30:13;101481.19;;;18.34;100.00
47104;BME280;32853;52.164;5.400;2023-07-20T05:32:38;101472.78;;;18.41;100.00
47104;BME280;32853;52.164;5.400;2023-07-20T05:35:03;101483.19;;;18.44;100.00
47104;BME280;32853;52.164;5.400;2023-07-20T05:37:29;101492.34;;;18.53;100.00
47104;BME280;32853;52.164;5.400;2023-07-20T05:39:58;101485.16;;;18.55;100.00
47104;BME280;32853;52.164;5.400;2023-07-20T05:42:24;101482.19;;;18.59;100.00
47104;BME280;32853;52.164;5.400;2023-07-20T05:44:49;101487.50;;;18.59;100.00
47104;BME280;32853;52.164;5.400;2023-07-20T05:47:17;101488.66;;;18.70;100.00
47104;BME280;32853;52.164;5.400;2023-07-20T05:49:43;101489.50;;;18.70;100.00
47104;BME280;32853;52.164;5.400;2023-07-20T05:52:08;101488.75;;;18.68;100.00
47104;BME280;32853;52.164;5.400;2023-07-20T05:54:33;101484.19;;;18.70;100.00
47104;BME280;32853;52.164;5.400;2023-07-20T05:56:58;101473.59;;;18.70;100.00
47104;BME280;32853;52.164;5.400;2023-07-20T05:59:24;101482.88;;;18.77;100.00
47104;BME280;32853;52.164;5.400;2023-07-20T06:01:49;101479.63;;;18.86;100.00
47104;BME280;32853;52.164;5.400;2023-07-20T06:04:15;101491.38;;;18.82;100.00
47104;BME280;32853;52.164;5.400;2023-07-20T06:06:40;101486.84;;;18.84;100.00
47104;BME280;32853;52.164;5.400;2023-07-20T06:09:06;101492.59;;;18.91;100.00
47104;BME280;32853;52.164;5.400;2023-07-20T06:11:37;101491.00;;;18.89;100.00
47104;BME280;32853;52.164;5.400;2023-07-20T06:14:02;101489.72;;;18.94;100.00
47104;BME280;32853;52.164;5.400;2023-07-20T06:16:27;101496.56;;;18.98;100.00
47104;BME280;32853;52.164;5.400;2023-07-20T06:18:52;101493.69;;;19.01;100.00
47104;BME280;32853;52.164;5.400;2023-07-20T06:21:17;101502.66;;;19.13;100.00
47104;BME280;32853;52.164;5.400;2023-07-20T06:23:43;101508.97;;;18.98;100.00
47104;BME280;32853;52.164;5.400;2023-07-20T06:26:08;101511.59;;;19.25;100.00
47104;BME280;32853;52.164;5.400;2023-07-20T06:28:33;101504.84;;;19.33;100.00
47104;BME280;32853;52.164;5.400;2023-07-20T06:31:02;101494.50;;;19.43;100.00
47104;BME280;32853;52.164;5.400;2023-07-20T06:33:28;101504.31;;;19.55;100.00
47104;BME280;32853;52.164;5.400;2023-07-20T06:35:53;101500.31;;;19.62;100.00
47104;BME280;32853;52.164;5.400;2023-07-20T06:38:19;101506.78;;;19.71;100.00
47104;BME280;32853;52.164;5.400;2023-07-20T06:40:47;101509.66;;;19.81;100.00
47104;BME280;32853;52.164;5.400;2023-07-20T06:43:14;101504.56;;;19.90;100.00
47104;BME280;32853;52.164;5.400;2023-07-20T06:45:41;101504.25;;;19.95;100.00
47104;BME280;32853;52.164;5.400;2023-07-20T06:48:07;101520.28;;;19.93;100.00
47104;BME280;32853;52.164;5.400;2023-07-20T06:50:33;101510.09;;;20.13;100.00
47104;BME280;32853;52.164;5.400;2023-07-20T06:52:58;101517.22;;;20.25;100.00
47104;BME280;32853;52.164;5.400;2023-07-20T06:55:25;101515.50;;;20.37;100.00
47104;BME280;32853;52.164;5.400;2023-07-20T06:57:50;101519.03;;;20.37;100.00
47104;BME280;32853;52.164;5.400;2023-07-20T07:00:16;101518.81;;;20.40;100.00
47104;BME280;32853;52.164;5.400;2023-07-20T07:02:41;101517.78;;;20.43;100.00
47104;BME280;32853;52.164;5.400;2023-07-20T07:05:09;101515.53;;;20.62;100.00
47104;BME280;32853;52.164;5.400;2023-07-20T07:07:35;101521.69;;;20.50;100.00
47104;BME280;32853;52.164;5.400;2023-07-20T07:10:00;101521.50;;;20.53;100.00
47104;BME280;32853;52.164;5.400;2023-07-20T07:12:26;101520.53;;;20.54;100.00
47104;BME280;32853;52.164;5.400;2023-07-20T07:14:51;101526.69;;;20.54;100.00
47104;BME280;32853;52.164;5.400;2023-07-20T07:17:17;101528.16;;;20.58;100.00
47104;BME280;32853;52.164;5.400;2023-07-20T07:19:43;101519.81;;;20.52;100.00
47104;BME280;32853;52.164;5.400;2023-07-20T07:22:09;101517.16;;;20.52;100.00
47104;BME280;32853;52.164;5.400;2023-07-20T07:24:34;101523.59;;;20.48;100.00
47104;BME280;32853;52.164;5.400;2023-07-20T07:27:00;101514.91;;;20.46;100.00
47104;BME280;32853;52.164;5.400;2023-07-20T07:29:27;101519.47;;;20.44;100.00
47104;BME280;32853;52.164;5.400;2023-07-20T07:31:52;101523.09;;;20.55;100.00
47104;BME280;32853;52.164;5.400;2023-07-20T07:34:17;101519.25;;;20.59;98.97
47104;BME280;32853;52.164;5.400;2023-07-20T07:36:43;101526.47;;;20.57;96.82
47104;BME280;32853;52.164;5.400;2023-07-20T07:39:08;101523.41;;;20.64;97.40
47104;BME280;32853;52.164;5.400;2023-07-20T07:41:34;101526.69;;;20.67;98.63
47104;BME280;32853;52.164;5.400;2023-07-20T07:43:59;101527.75;;;20.65;95.52
47104;BME280;32853;52.164;5.400;2023-07-20T07:46:25;101531.38;;;20.64;93.92
47104;BME280;32853;52.164;5.400;2023-07-20T07:48:50;101533.25;;;20.62;95.72
47104;BME280;32853;52.164;5.400;2023-07-20T07:51:15;101537.19;;;20.69;95.31
47104;BME280;32853;52.164;5.400;2023-07-20T07:53:40;101535.16;;;20.72;87.11
47104;BME280;32853;52.164;5.400;2023-07-20T07:56:09;101534.19;;;20.86;85.70
47104;BME280;32853;52.164;5.400;2023-07-20T07:58:36;101529.72;;;20.86;81.96
47104;BME280;32853;52.164;5.400;2023-07-20T08:01:02;101527.41;;;21.06;85.95
47104;BME280;32853;52.164;5.400;2023-07-20T08:03:27;101534.50;;;21.18;84.21
47104;BME280;32853;52.164;5.400;2023-07-20T08:05:56;101534.03;;;21.24;84.00
47104;BME280;32853;52.164;5.400;2023-07-20T08:08:25;101532.59;;;21.44;85.73
47104;BME280;32853;52.164;5.400;2023-07-20T08:10:52;101526.72;;;21.52;83.64
47104;BME280;32853;52.164;5.400;2023-07-20T08:13:17;101528.56;;;21.38;76.33
47104;BME280;32853;52.164;5.400;2023-07-20T08:15:49;101519.63;;;21.63;77.04
47104;BME280;32853;52.164;5.400;2023-07-20T08:18:16;101514.63;;;21.59;74.76
47104;BME280;32853;52.164;5.400;2023-07-20T08:20:45;101518.53;;;21.66;77.44
47104;BME280;32853;52.164;5.400;2023-07-20T08:23:10;101523.09;;;21.99;78.26
47104;BME280;32853;52.164;5.400;2023-07-20T08:25:36;101524.56;;;22.03;74.65
47104;BME280;32853;52.164;5.400;2023-07-20T08:28:02;101527.44;;;21.89;68.18
47104;BME280;32853;52.164;5.400;2023-07-20T08:30:38;101525.59;;;22.24;73.11
47104;BME280;32853;52.164;5.400;2023-07-20T08:33:04;101528.75;;;22.41;70.17
47104;BME280;32853;52.164;5.400;2023-07-20T08:35:33;101528.13;;;22.48;67.36
47104;BME280;32853;52.164;5.400;2023-07-20T08:37:58;101530.47;;;22.53;64.80
47104;BME280;32853;52.164;5.400;2023-07-20T08:40:24;101527.91;;;22.63;63.50
47104;BME280;32853;52.164;5.400;2023-07-20T08:42:52;101531.63;;;22.71;60.83
47104;BME280;32853;52.164;5.400;2023-07-20T08:45:20;101537.22;;;22.79;57.92
47104;BME280;32853;52.164;5.400;2023-07-20T08:47:50;101533.81;;;23.00;58.48
47104;BME280;32853;52.164;5.400;2023-07-20T08:50:16;101532.09;;;23.10;57.44
47104;BME280;32853;52.164;5.400;2023-07-20T08:52:41;101533.25;;;22.96;55.89
47104;BME280;32853;52.164;5.400;2023-07-20T08:55:06;101536.38;;;23.01;53.29
47104;BME280;32853;52.164;5.400;2023-07-20T08:57:35;101540.34;;;23.18;53.70
47104;BME280;32853;52.164;5.400;2023-07-20T09:00:04;101540.06;;;23.32;52.55
47104;BME280;32853;52.164;5.400;2023-07-20T09:02:30;101542.13;;;23.29;50.47
47104;BME280;32853;52.164;5.400;2023-07-20T09:04:58;101548.59;;;23.47;52.68
47104;BME280;32853;52.164;5.400;2023-07-20T09:07:23;101542.91;;;23.52;52.82
47104;BME280;32853;52.164;5.400;2023-07-20T09:09:50;101540.13;;;23.42;53.54
47104;BME280;32853;52.164;5.400;2023-07-20T09:12:16;101540.72;;;23.45;55.74
47104;BME280;32853;52.164;5.400;2023-07-20T09:14:45;101536.78;;;23.29;52.66
47104;BME280;32853;52.164;5.400;2023-07-20T09:17:13;101535.56;;;23.33;53.49
47104;BME280;32853;52.164;5.400;2023-07-20T09:19:45;101531.34;;;23.62;52.91
47104;BME280;32853;52.164;5.400;2023-07-20T09:22:15;101524.50;;;23.69;51.79
47104;BME280;32853;52.164;5.400;2023-07-20T09:24:42;101533.56;;;23.78;53.80
47104;BME280;32853;52.164;5.400;2023-07-20T09:27:07;101533.00;;;23.74;53.76
47104;BME280;32853;52.164;5.400;2023-07-20T09:29:34;101535.44;;;23.66;53.18
47104;BME280;32853;52.164;5.400;2023-07-20T09:32:00;101533.84;;;23.75;51.43
47104;BME280;32853;52.164;5.400;2023-07-20T09:34:32;101538.84;;;23.89;51.35
47104;BME280;32853;52.164;5.400;2023-07-20T09:37:00;101532.25;;;23.93;52.53
47104;BME280;32853;52.164;5.400;2023-07-20T09:39:26;101534.28;;;24.01;53.57
47104;BME280;32853;52.164;5.400;2023-07-20T09:41:51;101540.03;;;23.96;52.49
47104;BME280;32853;52.164;5.400;2023-07-20T09:44:19;101530.81;;;24.10;52.69
47104;BME280;32853;52.164;5.400;2023-07-20T09:46:49;101523.53;;;24.33;52.21
47104;BME280;32853;52.164;5.400;2023-07-20T09:49:17;101530.09;;;24.59;50.05
47104;BME280;32853;52.164;5.400;2023-07-20T09:51:42;101525.09;;;24.76;47.78
47104;BME280;32853;52.164;5.400;2023-07-20T09:54:08;101526.47;;;24.70;48.89
47104;BME280;32853;52.164;5.400;2023-07-20T09:56:34;101522.31;;;24.87;48.93
47104;BME280;32853;52.164;5.400;2023-07-20T09:59:00;101529.44;;;25.07;48.78
47104;BME280;32853;52.164;5.400;2023-07-20T10:01:25;101516.19;;;25.25;47.23
47104;BME280;32853;52.164;5.400;2023-07-20T10:03:52;101524.22;;;25.35;43.80
47104;BME280;32853;52.164;5.400;2023-07-20T10:06:23;101514.91;;;25.10;44.27
47104;BME280;32853;52.164;5.400;2023-07-20T10:08:49;101521.16;;;24.80;46.24
47104;BME280;32853;52.164;5.400;2023-07-20T10:11:18;101517.53;;;25.00;46.55
47104;BME280;32853;52.164;5.400;2023-07-20T10:13:46;101514.78;;;25.21;43.86
47104;BME280;32853;52.164;5.400;2023-07-20T10:16:21;101511.53;;;25.27;42.67
47104;BME280;32853;52.164;5.400;2023-07-20T10:21:35;101501.53;;;25.48;43.58
47104;BME280;32853;52.164;5.400;2023-07-20T10:24:04;101509.03;;;25.74;45.02
47104;BME280;32853;52.164;5.400;2023-07-20T10:26:30;101501.22;;;25.90;42.90
47104;BME280;32853;52.164;5.400;2023-07-20T10:28:56;101508.97;;;25.93;42.70
47104;BME280;32853;52.164;5.400;2023-07-20T10:31:22;101507.75;;;25.88;45.11
47104;BME280;32853;52.164;5.400;2023-07-20T10:33:54;101510.78;;;26.02;45.36
47104;BME280;32853;52.164;5.400;2023-07-20T10:36:27;101504.41;;;26.13;45.61
47104;BME280;32853;52.164;5.400;2023-07-20T10:38:53;101507.69;;;26.07;43.72
47104;BME280;32853;52.164;5.400;2023-07-20T10:41:35;101497.66;;;26.09;43.65
47104;BME280;32853;52.164;5.400;2023-07-20T10:44:07;101497.03;;;25.78;43.71
47104;BME280;32853;52.164;5.400;2023-07-20T10:46:43;101498.31;;;25.74;42.75
47104;BME280;32853;52.164;5.400;2023-07-20T10:49:11;101496.59;;;25.83;42.12
47104;BME280;32853;52.164;5.400;2023-07-20T10:51:47;101496.59;;;25.83;42.96
47104;BME280;32853;52.164;5.400;2023-07-20T10:56:41;101501.41;;;25.79;44.33
47104;BME280;32853;52.164;5.400;2023-07-20T11:01:57;101494.66;;;25.75;44.41
47104;BME280;32853;52.164;5.400;2023-07-20T11:04:37;101492.66;;;25.67;43.29
47104;BME280;32853;52.164;5.400;2023-07-20T11:09:47;101481.94;;;25.87;43.63
47104;BME280;32853;52.164;5.400;2023-07-20T11:12:13;101483.09;;;26.21;44.80
47104;BME280;32853;52.164;5.400;2023-07-20T11:14:41;101491.09;;;26.41;41.73
47104;BME280;32853;52.164;5.400;2023-07-20T11:17:13;101492.50;;;25.88;40.69
47104;BME280;32853;52.164;5.400;2023-07-20T11:19:39;101487.72;;;26.39;42.42
47104;BME280;32853;52.164;5.400;2023-07-20T11:22:05;101479.06;;;26.35;41.49
47104;BME280;32853;52.164;5.400;2023-07-20T11:24:33;101482.84;;;26.52;42.02
47104;BME280;32853;52.164;5.400;2023-07-20T11:26:58;101483.75;;;26.43;40.10
47104;BME280;32853;52.164;5.400;2023-07-20T11:29:24;101477.97;;;26.65;40.60
47104;BME280;32853;52.164;5.400;2023-07-20T11:31:50;101472.97;;;26.70;40.39
47104;BME280;32853;52.164;5.400;2023-07-20T11:34:19;101478.03;;;26.83;40.56
47104;BME280;32853;52.164;5.400;2023-07-20T11:36:46;101476.69;;;26.42;38.25
47104;BME280;32853;52.164;5.400;2023-07-20T11:39:12;101476.63;;;26.79;39.79
47104;BME280;32853;52.164;5.400;2023-07-20T11:41:44;101476.22;;;26.74;38.08
47104;BME280;32853;52.164;5.400;2023-07-20T11:44:11;101468.06;;;26.38;39.27
47104;BME280;32853;52.164;5.400;2023-07-20T11:46:40;101469.81;;;26.57;39.84
47104;BME280;32853;52.164;5.400;2023-07-20T11:49:07;101474.13;;;26.50;38.25
47104;BME280;32853;52.164;5.400;2023-07-20T11:51:33;101469.91;;;26.65;39.34
47104;BME280;32853;52.164;5.400;2023-07-20T11:54:01;101451.41;;;26.89;39.10
47104;BME280;32853;52.164;5.400;2023-07-20T11:56:31;101465.13;;;26.59;38.43
47104;BME280;32853;52.164;5.400;2023-07-20T11:59:06;101463.66;;;26.74;38.15
47104;BME280;32853;52.164;5.400;2023-07-20T12:01:31;101467.72;;;26.78;37.47
47104;BME280;32853;52.164;5.400;2023-07-20T12:03:59;101465.03;;;26.78;38.14
47104;BME280;32853;52.164;5.400;2023-07-20T12:08:56;101470.44;;;27.14;38.04
47104;BME280;32853;52.164;5.400;2023-07-20T12:11:34;101452.94;;;27.45;38.87
47104;BME280;32853;52.164;5.400;2023-07-20T12:14:02;101456.38;;;27.56;37.90
47104;BME280;32853;52.164;5.400;2023-07-20T12:16:28;101452.81;;;27.29;36.91
47104;BME280;32853;52.164;5.400;2023-07-20T12:19:00;101449.47;;;27.00;38.59
47104;BME280;32853;52.164;5.400;2023-07-20T12:21:40;101445.28;;;26.52;38.29
47104;BME280;32853;52.164;5.400;2023-07-20T12:24:07;101444.34;;;26.88;37.89
47104;BME280;32853;52.164;5.400;2023-07-20T12:26:35;101447.19;;;27.05;38.90
47104;BME280;32853;52.164;5.400;2023-07-20T12:29:03;101444.16;;;27.17;39.49
47104;BME280;32853;52.164;5.400;2023-07-20T12:31:33;101442.13;;;27.37;39.00
47104;BME280;32853;52.164;5.400;2023-07-20T12:34:02;101442.16;;;27.63;39.27
47104;BME280;32853;52.164;5.400;2023-07-20T12:36:29;101439.97;;;27.85;39.65
47104;BME280;32853;52.164;5.400;2023-07-20T12:38:58;101448.16;;;27.75;38.40
47104;BME280;32853;52.164;5.400;2023-07-20T12:41:27;101443.94;;;27.55;39.23
47104;BME280;32853;52.164;5.400;2023-07-20T12:43:52;101437.00;;;27.70;39.58
47104;BME280;32853;52.164;5.400;2023-07-20T12:46:18;101427.03;;;27.62;38.38
47104;BME280;32853;52.164;5.400;2023-07-20T12:48:44;101437.47;;;27.39;38.09
47104;BME280;32853;52.164;5.400;2023-07-20T12:51:12;101443.88;;;27.46;37.93
47104;BME280;32853;52.164;5.400;2023-07-20T12:53:38;101443.47;;;27.59;37.64
47104;BME280;32853;52.164;5.400;2023-07-20T12:56:06;101440.31;;;27.64;38.36
47104;BME280;32853;52.164;5.400;2023-07-20T12:58:35;101428.75;;;27.89;38.91
47104;BME280;32853;52.164;5.400;2023-07-20T13:01:01;101431.03;;;28.10;38.07
47104;BME280;32853;52.164;5.400;2023-07-20T13:03:27;101439.06;;;28.02;38.65
47104;BME280;32853;52.164;5.400;2023-07-20T13:05:52;101431.19;;;27.74;38.13
47104;BME280;32853;52.164;5.400;2023-07-20T13:08:18;101432.88;;;27.58;38.21
47104;BME280;32853;52.164;5.400;2023-07-20T13:10:44;101430.91;;;27.42;37.26
47104;BME280;32853;52.164;5.400;2023-07-20T13:13:10;101420.94;;;27.34;38.18
47104;BME280;32853;52.164;5.400;2023-07-20T13:15:42;101426.84;;;27.38;39.39
47104;BME280;32853;52.164;5.400;2023-07-20T13:20:45;101421.53;;;27.46;39.71